METAR AND TAF INFORMATION
METAR FOR EDDH
ADDS - METARS form results

(1525 UTC 23 April 2018)
Data provider http://aviationweather.gov/adds/metars/
 
METAR text: EDDH 231520Z 31015KT 9999 SCT033 15/08 Q1012 NOSIG
Conditions at: EDDH (HAMBURG/FUHLSBUT, DE) observed 1520 UTC 23 April 2018
Temperature: 15.0°C (59°F)
Dewpoint: 8.0°C (46°F) [RH = 63%]
Pressure (altimeter): 29.88 inches Hg (1012.0 mb)
Winds: from the NW (310 degrees) at 17 MPH (15 knots; 7.8 m/s)
Visibility: 6 or more miles (10+ km)
Ceiling: at least 12,000 feet AGL
Clouds: scattered clouds at 3300 feet AGL
Weather: no significant weather observed at this time

METAR text: EDDH 231450Z 30010KT 9999 SCT033 16/08 Q1012 NOSIG
Conditions at: EDDH (HAMBURG/FUHLSBUT, DE) observed 1450 UTC 23 April 2018
Temperature: 16.0°C (61°F)
Dewpoint: 8.0°C (46°F) [RH = 59%]
Pressure (altimeter): 29.88 inches Hg (1012.0 mb)
Winds: from the WNW (300 degrees) at 12 MPH (10 knots; 5.2 m/s)
Visibility: 6 or more miles (10+ km)
Ceiling: at least 12,000 feet AGL
Clouds: scattered clouds at 3300 feet AGL
Weather: no significant weather observed at this time

Forecast for: EDDH (HAMBURG/FUHLSBUT, DE)
Text: TAF EDDH 231100Z 2312/2418 29013KT 9999 SCT035
Forecast period: 1200 to 1700 UTC 23 April 2018
Forecast type: FROM: standard forecast or significant change
Winds: from the WNW (290 degrees) at 15 MPH (13 knots; 6.8 m/s)
Visibility: 6 or more miles (10+ km)
Clouds: scattered clouds at 3500 feet AGL
Weather: no significant weather forecast for this period
Forecast for: EDDH (HAMBURG/FUHLSBUT, DE)
Text: TAF EDDH 231100Z 2312/2418 29013KT 9999 SCT035
Forecast period: 1200 to 1700 UTC 23 April 2018
Forecast type: FROM: standard forecast or significant change
Winds: from the WNW (290 degrees) at 15 MPH (13 knots; 6.8 m/s)
Visibility: 6 or more miles (10+ km)
Clouds: scattered clouds at 3500 feet AGL
Weather: no significant weather forecast for this period
Forecast for: EDDH (HAMBURG/FUHLSBUT, DE)
Text: TAF EDDH 231100Z 2312/2418 29013KT 9999 SCT035
Forecast period: 1200 to 1600 UTC 23 April 2018
Forecast type: TEMPORARY: The following changes expected for less than half the time period
Winds: from the WNW (290 degrees) at 17 MPH (15 knots; 7.8 m/s)
gusting to 29 MPH (25 knots; 13.0 m/s)
Weather: no significant weather forecast for this period
Forecast for: EDDH (HAMBURG/FUHLSBUT, DE)
Text: TAF EDDH 231100Z 2312/2418 29013KT 9999 SCT035
Forecast period: 1200 to 1600 UTC 23 April 2018
Forecast type: TEMPORARY: The following changes expected for less than half the time period
Winds: from the WNW (290 degrees) at 17 MPH (15 knots; 7.8 m/s)
gusting to 29 MPH (25 knots; 13.0 m/s)
Weather: no significant weather forecast for this period
Forecast for: EDDH (HAMBURG/FUHLSBUT, DE)
Text: TAF EDDH 231100Z 2312/2418 29013KT 9999 SCT035
Forecast period: 1700 UTC 23 April 2018 to 0700 UTC 24 April 2018
Forecast type: BECOMING: Conditions expected to become as follows by 1900 UTC 23 April 2018
Winds: from the WSW (240 degrees) at 7 MPH (6 knots; 3.1 m/s)
Visibility: 6 or more miles (10+ km)
Clouds: scattered clouds at 3500 feet AGL
Weather: no significant weather forecast for this period
Forecast for: EDDH (HAMBURG/FUHLSBUT, DE)
Text: TAF EDDH 231100Z 2312/2418 29013KT 9999 SCT035
Forecast period: 1700 UTC 23 April 2018 to 0700 UTC 24 April 2018
Forecast type: BECOMING: Conditions expected to become as follows by 1900 UTC 23 April 2018
Winds: from the WSW (240 degrees) at 7 MPH (6 knots; 3.1 m/s)
Visibility: 6 or more miles (10+ km)
Clouds: scattered clouds at 3500 feet AGL
Weather: no significant weather forecast for this period
Forecast for: EDDH (HAMBURG/FUHLSBUT, DE)
Text: TAF EDDH 231100Z 2312/2418 29013KT 9999 SCT035
Forecast period: 0700 to 1300 UTC 24 April 2018
Forecast type: BECOMING: Conditions expected to become as follows by 0900 UTC 24 April 2018
Winds: from the WSW (240 degrees) at 14 MPH (12 knots; 6.2 m/s)
Visibility: 6 or more miles (10+ km)
Clouds: scattered clouds at 3500 feet AGL
Weather: no significant weather forecast for this period
Forecast for: EDDH (HAMBURG/FUHLSBUT, DE)
Text: TAF EDDH 231100Z 2312/2418 29013KT 9999 SCT035
Forecast period: 0700 to 1300 UTC 24 April 2018
Forecast type: BECOMING: Conditions expected to become as follows by 0900 UTC 24 April 2018
Winds: from the WSW (240 degrees) at 14 MPH (12 knots; 6.2 m/s)
Visibility: 6 or more miles (10+ km)
Clouds: scattered clouds at 3500 feet AGL
Weather: no significant weather forecast for this period
Forecast for: EDDH (HAMBURG/FUHLSBUT, DE)
Text: TAF EDDH 231100Z 2312/2418 29013KT 9999 SCT035
Forecast period: 0800 to 1300 UTC 24 April 2018
Forecast type: TEMPORARY: The following changes expected for less than half the time period
Winds: from the WSW (250 degrees) at 17 MPH (15 knots; 7.8 m/s)
gusting to 29 MPH (25 knots; 13.0 m/s)
Weather: no significant weather forecast for this period
Forecast for: EDDH (HAMBURG/FUHLSBUT, DE)
Text: TAF EDDH 231100Z 2312/2418 29013KT 9999 SCT035
Forecast period: 0800 to 1300 UTC 24 April 2018
Forecast type: TEMPORARY: The following changes expected for less than half the time period
Winds: from the WSW (250 degrees) at 17 MPH (15 knots; 7.8 m/s)
gusting to 29 MPH (25 knots; 13.0 m/s)
Weather: no significant weather forecast for this period
Forecast for: EDDH (HAMBURG/FUHLSBUT, DE)
Text: TAF EDDH 231100Z 2312/2418 29013KT 9999 SCT035
Forecast period: 0800 to 1800 UTC 24 April 2018
Forecast type: TEMPORARY: The following changes expected for less than half the time period
Ceiling: 1300 feet AGL
Clouds: broken clouds at 1300 feet AGL
Weather: no significant weather forecast for this period
Forecast for: EDDH (HAMBURG/FUHLSBUT, DE)
Text: TAF EDDH 231100Z 2312/2418 29013KT 9999 SCT035
Forecast period: 0800 to 1800 UTC 24 April 2018
Forecast type: TEMPORARY: The following changes expected for less than half the time period
Ceiling: 1300 feet AGL
Clouds: broken clouds at 1300 feet AGL
Weather: no significant weather forecast for this period
Forecast for: EDDH (HAMBURG/FUHLSBUT, DE)
Text: TAF EDDH 231100Z 2312/2418 29013KT 9999 SCT035
Forecast period: 1300 to 1800 UTC 24 April 2018
Forecast type: BECOMING: Conditions expected to become as follows by 1500 UTC 24 April 2018
Winds: from the WSW (250 degrees) at 8 MPH (7 knots; 3.6 m/s)
Visibility: 6 or more miles (10+ km)
Clouds: scattered clouds at 3500 feet AGL
Weather: no significant weather forecast for this period
Forecast for: EDDH (HAMBURG/FUHLSBUT, DE)
Text: TAF EDDH 231100Z 2312/2418 29013KT 9999 SCT035
Forecast period: 1300 to 1800 UTC 24 April 2018
Forecast type: BECOMING: Conditions expected to become as follows by 1500 UTC 24 April 2018
Winds: from the WSW (250 degrees) at 8 MPH (7 knots; 3.6 m/s)
Visibility: 6 or more miles (10+ km)
Clouds: scattered clouds at 3500 feet AGL
Weather: no significant weather forecast for this period
Forecast for: EDDH (HAMBURG/FUHLSBUT, DE)
Text: TAF EDDH 231100Z 2312/2418 29013KT 9999 SCT035
Forecast period: 1500 to 1800 UTC 24 April 2018
Forecast type: TEMPORARY: The following changes expected for less than half the time period
Visibility: 2.80 miles (4.51 km)
Ceiling: 800 feet AGL
Clouds: broken clouds at 800 feet AGL
Weather: RA DZ  (rain, drizzle)
Forecast for: EDDH (HAMBURG/FUHLSBUT, DE)
Text: TAF EDDH 231100Z 2312/2418 29013KT 9999 SCT035
Forecast period: 1500 to 1800 UTC 24 April 2018
Forecast type: TEMPORARY: The following changes expected for less than half the time period
Visibility: 2.80 miles (4.51 km)
Ceiling: 800 feet AGL
Clouds: broken clouds at 800 feet AGL
Weather: RA DZ  (rain, drizzle)

 AIRPORT MAP

 RUNWAY INFORMATION
Runway 05 Runway length 10663 ft Runway width 150 ft
Runway elevation 32 ft Runway displaced threshold 978 ft Runway heading 50
Runway 23 Runway length 10663 ft Runway width 150 ft
Runway elevation 43 ft Runway displaced threshold 512 ft Runway heading 230
Runway 15 Runway length 12028 ft Runway width 150 ft
Runway elevation 53 ft Runway displaced threshold 0 ft Runway heading 153
Runway 33 Runway length 12028 ft Runway width 150 ft
Runway elevation 35 ft Runway displaced threshold 1464 ft Runway heading 333

 AIRPORT FREQUENCIES
Type ATIS Name ATIS Frequency 123.125 MHZ
Type DIR Name DIRECTOR Frequency 118.2 MHZ
Type GND Name GND Frequency 121.8 MHZ
Type RDR Name BREMEN RAD Frequency 134.25 MHZ
Type RMP Name APRON Frequency 121.7 MHZ
Type TWR Name TWR Frequency 126.85 MHZ

 AIRPORT NEAR NAVIGATION AIDS
Type DME Name Alster Frequency 115800 KHZ
Type NDB Name Hamburg West Frequency 351 KHZ
Type NDB Name Hamburg North Frequency 323 KHZ
Type VORTAC Name Hamburg Frequency 113100 KHZ
Type NDB Name Hamburg Frequency 339 KHZ



Powered by Virtual Airlines Manager [v2.6.2]